Portada
METAR-TAF:

METAR-TAF

Aeroports :

Theveste, Algèria

latitud: 35-29N, longitud: 008-08E, altitud: 813 m

Observació

L'informe es va fer fa 21 minuts, a les 18:00 UTC
Vent 4 kt del Est/Sud-Est
Temperatura 24°C
Humitat 20%
Pressió 1015 hPa
Visibilitat 10 km o més
sense núvols per sota de 1500 mi sense presència de cumulonimbus.

METAR: DABS 181800Z 12004KT CAVOK 24/00 Q1015

Hora: 19:21 (18:21 UTC)

Pronòstic

L'informe es va fer fa 1 hora i 21 minuts, a les 17:00 UTC
Pronòstic vàlid del 18 a les 18 UTC al 19 a les 18 UTC
Vent 12 kt del Sud
Visibilitat 10 km o més
Escasses núvols a una alçada de 3000 ft
Núvols disperses a una alçada de 20000 ft
Probabilitat 30% :
Temporalment
l' 18 a les 12 UTC al 18 a les 18 UTC
Escasses núvols a una alçada de 2300 ft, Cumulus congestus.
Evolucionant progressivament
l' 19 a les 12 UTC al 19 a les 18 UTC
Vent 25 kt del Sud-Est

TAF: DABS 181700Z 1818/1918 18012KT 9999 FEW030 SCT200 PROB30 TEMPO 1812/1818 FEW023TCU BECMG 1912/1918 14025KT

Observacions i pronòstics meteorològics de més de 4000 aeroports (METAR i TAF).

Les estacions disponibles són els punts grocs i vermells al mapa.

Posi el ratolí al punt desitjat per veure el nom de l'estació.

Feu clic per veure les observacions i els pronòstics meteorològics.

Per canviar el mapa: feu clic els botons verds amb una creu de color negre per apropar; al botó verd amb un guió per allunyar la imatge; o en les fletxes verdes per a mapes adjacents.


METAR-TAF: